createdAt,value
2018-02-02T00:02:21.877Z,96699.50
2018-02-02T00:04:49.882Z,96698.83
2018-02-02T00:07:17.402Z,96689.54
2018-02-02T00:09:44.907Z,96695.14
2018-02-02T00:12:12.378Z,96696.72
2018-02-02T00:14:39.909Z,96698.83
2018-02-02T00:17:07.399Z,96702.55
2018-02-02T00:19:34.875Z,96695.93
2018-02-02T00:22:02.394Z,96697.52
2018-02-02T00:24:29.892Z,96695.91
2018-02-02T00:26:57.391Z,96692.06
2018-02-02T00:29:24.865Z,96692.98
2018-02-02T00:31:52.381Z,96688.34
2018-02-02T00:34:19.908Z,96694.18
2018-02-02T00:36:47.414Z,96687.02
2018-02-02T00:39:15.638Z,96692.97
2018-02-02T00:41:43.106Z,96689.66
2018-02-02T00:44:10.685Z,96692.55
2018-02-02T00:46:38.240Z,96692.80
2018-02-02T00:49:05.785Z,96686.20
2018-02-02T00:51:38.914Z,96698.56
2018-02-02T00:54:07.939Z,96695.32
2018-02-02T00:56:35.673Z,96691.70
2018-02-02T00:59:03.192Z,96698.77
2018-02-02T01:01:30.675Z,96701.84
2018-02-02T01:03:58.197Z,96705.86
2018-02-02T01:06:25.773Z,96703.07
2018-02-02T01:08:53.246Z,96710.13
2018-02-02T01:11:20.855Z,96713.45
2018-02-02T01:13:48.334Z,96715.83
2018-02-02T01:16:15.865Z,96718.22
2018-02-02T01:18:43.369Z,96717.95
2018-02-02T01:21:10.857Z,96723.00
2018-02-02T01:23:38.382Z,96720.61
2018-02-02T01:26:05.862Z,96724.47
2018-02-02T01:28:33.364Z,96726.60
2018-02-02T01:31:00.881Z,96726.20
2018-02-02T01:33:28.398Z,96718.23
2018-02-02T01:35:55.872Z,96725.28
2018-02-02T01:38:23.368Z,96720.77
2018-02-02T01:40:50.877Z,96725.55
2018-02-02T01:43:18.349Z,96728.56
2018-02-02T01:45:45.854Z,96727.60
2018-02-02T01:48:21.233Z,96727.88
2018-02-02T01:50:50.545Z,96730.66
2018-02-02T01:53:18.015Z,96718.70
2018-02-02T01:55:45.492Z,96716.87
2018-02-02T01:58:13.043Z,96714.36
2018-02-02T02:00:40.530Z,96715.15
2018-02-02T02:03:08.052Z,96712.12
2018-02-02T02:05:35.532Z,96711.04
2018-02-02T02:08:03.034Z,96714.51
2018-02-02T02:10:30.507Z,96708.80
2018-02-02T02:12:58.004Z,96713.03
2018-02-02T02:15:25.503Z,96709.04
2018-02-02T02:17:52.986Z,96710.23
2018-02-02T02:20:20.494Z,96701.61
2018-02-02T02:22:48.056Z,96713.84
2018-02-02T02:25:15.562Z,96711.72
2018-02-02T02:27:43.055Z,96705.89
2018-02-02T02:30:10.677Z,96709.08
2018-02-02T02:32:38.189Z,96703.09
2018-02-02T02:35:05.846Z,96699.36
2018-02-02T02:37:33.455Z,96697.12
2018-02-02T02:40:01.105Z,96697.50
2018-02-02T02:42:28.633Z,96697.50
2018-02-02T02:44:56.245Z,96706.52
2018-02-02T02:47:23.873Z,96705.05
2018-02-02T02:49:51.435Z,96703.96
2018-02-02T02:52:19.038Z,96707.70
2018-02-02T02:54:46.539Z,96712.47
2018-02-02T02:57:14.009Z,96716.19
2018-02-02T02:59:41.525Z,96715.11
2018-02-02T03:02:09.042Z,96714.80
2018-02-02T03:04:36.535Z,96719.16
2018-02-02T03:07:04.049Z,96713.33
2018-02-02T03:09:31.545Z,96720.83
2018-02-02T03:11:59.047Z,96723.91
2018-02-02T03:14:26.536Z,96719.01
2018-02-02T03:16:54.106Z,96713.45
2018-02-02T03:19:21.614Z,96713.59
2018-02-02T03:21:49.187Z,96720.48
2018-02-02T03:24:16.700Z,96722.22
2018-02-02T03:26:44.185Z,96726.34
2018-02-02T03:29:11.707Z,96718.91
2018-02-02T03:31:39.281Z,96721.01
2018-02-02T03:34:06.833Z,96719.57
2018-02-02T03:36:34.319Z,96723.29
2018-02-02T03:39:01.838Z,96722.63
2018-02-02T03:41:29.368Z,96718.38
2018-02-02T03:43:56.866Z,96713.19
2018-02-02T03:46:24.984Z,96721.55
2018-02-02T03:48:52.568Z,96720.62
2018-02-02T03:51:20.089Z,96721.41
2018-02-02T03:53:48.861Z,96718.75
2018-02-02T03:56:16.379Z,96723.67
2018-02-02T03:58:43.951Z,96719.94
2018-02-02T04:01:11.441Z,96721.27
2018-02-02T04:03:38.978Z,96721.16
2018-02-02T04:06:06.587Z,96719.95
2018-02-02T04:08:34.477Z,96719.56
2018-02-02T04:11:01.985Z,96713.05
2018-02-02T04:13:29.474Z,96716.91
2018-02-02T04:15:56.996Z,96722.74
2018-02-02T04:18:24.471Z,96725.55
2018-02-02T04:20:51.996Z,96725.67
2018-02-02T04:23:19.466Z,96726.47
2018-02-02T04:25:46.965Z,96728.47
2018-02-02T04:28:14.470Z,96729.78
2018-02-02T04:30:41.971Z,96735.23
2018-02-02T04:33:09.479Z,96737.60
2018-02-02T04:35:52.813Z,96744.27
2018-02-02T04:38:20.322Z,96739.21
2018-02-02T04:40:47.887Z,96746.12
2018-02-02T04:43:15.385Z,96740.28
2018-02-02T04:45:43.703Z,96735.76
2018-02-02T04:48:11.311Z,96738.41
2018-02-02T04:50:39.886Z,96744.89
2018-02-02T04:53:07.416Z,96742.36
2018-02-02T04:55:34.906Z,96739.03
2018-02-02T04:58:02.371Z,96735.05
2018-02-02T05:00:29.868Z,96736.48
2018-02-02T05:02:57.989Z,96744.98
2018-02-02T05:05:25.496Z,96738.09
2018-02-02T05:07:53.019Z,96736.38
2018-02-02T05:10:20.653Z,96734.78
2018-02-02T05:12:48.231Z,96730.80
2018-02-02T05:15:15.799Z,96730.00
2018-02-02T05:17:43.320Z,96732.79
2018-02-02T05:20:11.023Z,96728.16
2018-02-02T05:22:38.522Z,96722.16
2018-02-02T05:25:06.003Z,96719.10
2018-02-02T05:27:33.532Z,96724.81
2018-02-02T05:30:01.081Z,96720.84
2018-02-02T05:32:28.558Z,96719.91
2018-02-02T05:34:56.076Z,96723.89
2018-02-02T05:37:23.565Z,96714.86
2018-02-02T05:39:51.094Z,96719.47
2018-02-02T05:42:18.586Z,96718.78
2018-02-02T05:44:46.052Z,96713.99
2018-02-02T05:47:13.542Z,96715.67
2018-02-02T05:49:41.041Z,96718.98
2018-02-02T05:52:08.784Z,96716.70
2018-02-02T05:54:36.360Z,96717.38
2018-02-02T05:57:03.841Z,96721.90
2018-02-02T05:59:31.410Z,96718.50
2018-02-02T06:01:58.926Z,96717.05
2018-02-02T06:04:26.405Z,96706.79
2018-02-02T06:06:54.484Z,96706.97
2018-02-02T06:09:21.971Z,96705.05
2018-02-02T06:11:49.528Z,96705.05
2018-02-02T06:14:17.032Z,96706.27
2018-02-02T06:16:44.505Z,96705.61
2018-02-02T06:22:12.015Z,96713.63
2018-02-02T06:24:39.515Z,96721.19
2018-02-02T06:27:07.023Z,96718.15
2018-02-02T06:29:34.553Z,96728.66
2018-02-02T06:32:02.042Z,96722.45
2018-02-02T06:34:29.578Z,96729.87
2018-02-02T06:37:04.631Z,96734.91
2018-02-02T06:39:32.200Z,96728.25
2018-02-02T06:41:59.788Z,96736.18
2018-02-02T06:44:28.139Z,96738.56
2018-02-02T06:46:55.672Z,96749.00
2018-02-02T06:49:23.337Z,96738.81
2018-02-02T06:51:51.066Z,96741.00
2018-02-02T06:54:18.955Z,96740.42
2018-02-02T06:56:46.425Z,96745.69
2018-02-02T06:59:14.026Z,96741.65
2018-02-02T07:01:41.526Z,96754.41
2018-02-02T07:04:09.012Z,96757.34
2018-02-02T07:06:36.528Z,96759.81
2018-02-02T07:09:04.054Z,96763.41
2018-02-02T07:11:31.576Z,96765.28
2018-02-02T07:13:59.089Z,96765.88
2018-02-02T07:16:26.592Z,96766.44
2018-02-02T07:18:54.152Z,96765.80
2018-02-02T07:21:21.644Z,96773.91
2018-02-02T07:23:49.165Z,96769.20
2018-02-02T07:26:16.650Z,96768.44
2018-02-02T07:28:44.183Z,96768.02
2018-02-02T07:31:11.668Z,96766.71
2018-02-02T07:33:39.157Z,96766.70
2018-02-02T07:36:06.626Z,96770.00
2018-02-02T07:38:34.179Z,96778.11
2018-02-02T07:41:01.713Z,96777.98
2018-02-02T07:43:29.249Z,96774.86
2018-02-02T07:45:56.875Z,96773.91
2018-02-02T07:48:24.355Z,96770.14
2018-02-02T07:50:51.874Z,96765.51
2018-02-02T07:53:19.377Z,96770.95
2018-02-02T07:55:46.860Z,96766.41
2018-02-02T07:58:14.364Z,96762.18
2018-02-02T08:00:47.469Z,96759.78
2018-02-02T08:03:15.038Z,96769.69
2018-02-02T08:05:42.643Z,96766.28
2018-02-02T08:08:10.244Z,96761.52
2018-02-02T08:10:37.805Z,96752.05
2018-02-02T08:13:05.434Z,96759.29
2018-02-02T08:15:32.927Z,96767.67
2018-02-02T08:18:00.468Z,96769.25
2018-02-02T08:20:28.019Z,96768.01
2018-02-02T08:22:55.511Z,96767.17
2018-02-02T08:25:23.091Z,96762.11
2018-02-02T08:27:50.574Z,96758.53
2018-02-02T08:30:18.089Z,96756.00
2018-02-02T08:32:45.565Z,96759.61
2018-02-02T08:35:13.057Z,96759.31
2018-02-02T08:37:40.574Z,96756.45
2018-02-02T08:40:08.085Z,96749.35
2018-02-02T08:42:35.664Z,96755.81
2018-02-02T08:45:03.141Z,96753.64
2018-02-02T08:47:30.651Z,96750.56
2018-02-02T08:49:58.379Z,96755.02
2018-02-02T08:52:25.890Z,96747.86
2018-02-02T08:54:53.545Z,96760.66
2018-02-02T08:57:21.080Z,96760.01
2018-02-02T08:59:48.648Z,96748.73
2018-02-02T09:02:16.159Z,96758.36
2018-02-02T09:04:43.844Z,96760.23
2018-02-02T09:07:11.423Z,96767.53
2018-02-02T09:09:38.958Z,96764.86
2018-02-02T09:12:07.055Z,96763.83
2018-02-02T09:14:34.567Z,96772.42
2018-02-02T09:17:02.095Z,96769.28
2018-02-02T09:19:29.644Z,96775.67
2018-02-02T09:21:56.609Z,96776.05
2018-02-02T09:24:24.079Z,96779.45
2018-02-02T09:26:51.594Z,96775.36
2018-02-02T09:29:19.121Z,96770.55
2018-02-02T09:31:46.616Z,96776.55
2018-02-02T09:34:14.134Z,96767.34
2018-02-02T09:36:41.627Z,96774.16
2018-02-02T09:39:09.129Z,96768.41
2018-02-02T09:41:36.613Z,96782.31
2018-02-02T09:44:04.110Z,96777.46
2018-02-02T09:46:31.631Z,96772.45
2018-02-02T09:48:59.160Z,96781.22
2018-02-02T09:51:26.690Z,96778.13
2018-02-02T09:53:54.839Z,96773.58
2018-02-02T09:56:22.360Z,96781.23
2018-02-02T09:58:49.853Z,96762.59
2018-02-02T10:01:17.438Z,96773.19
2018-02-02T10:03:45.013Z,96770.83
2018-02-02T10:06:12.596Z,96772.91
2018-02-02T10:08:40.105Z,96782.91
2018-02-02T10:11:07.637Z,96779.53
2018-02-02T10:13:35.474Z,96775.20
2018-02-02T10:16:03.012Z,96784.98
2018-02-02T10:18:30.506Z,96773.34
2018-02-02T10:20:57.999Z,96786.13
2018-02-02T10:23:25.509Z,96769.00
2018-02-02T10:25:52.997Z,96779.61
2018-02-02T10:28:21.218Z,96774.27
2018-02-02T10:30:48.707Z,96777.45
2018-02-02T10:33:16.244Z,96776.70
2018-02-02T10:35:43.750Z,96758.44
2018-02-02T10:38:11.307Z,96765.89
2018-02-02T10:40:39.007Z,96756.15
2018-02-02T10:43:06.517Z,96756.45
2018-02-02T10:45:34.030Z,96748.25
2018-02-02T10:48:01.529Z,96759.58
2018-02-02T10:50:29.036Z,96745.11
2018-02-02T10:52:56.521Z,96743.27
2018-02-02T10:55:24.034Z,96741.74
2018-02-02T10:57:51.506Z,96743.14
2018-02-02T11:00:19.050Z,96749.98
2018-02-02T11:02:52.058Z,96743.72
2018-02-02T11:05:19.607Z,96744.32
2018-02-02T11:07:47.186Z,96749.62
2018-02-02T11:10:14.669Z,96740.84
2018-02-02T11:12:42.241Z,96749.39
2018-02-02T11:15:09.722Z,96733.08
2018-02-02T11:17:37.267Z,96733.55
2018-02-02T11:20:04.753Z,96735.06
2018-02-02T11:22:32.358Z,96730.42
2018-02-02T11:24:59.873Z,96726.97
2018-02-02T11:27:27.492Z,96725.70
2018-02-02T11:29:55.009Z,96728.41
2018-02-02T11:32:22.498Z,96731.69
2018-02-02T11:34:49.998Z,96729.03
2018-02-02T11:37:17.498Z,96721.47
2018-02-02T11:39:45.006Z,96718.42
2018-02-02T11:42:12.511Z,96717.92
2018-02-02T11:44:39.993Z,96716.83
2018-02-02T11:47:07.496Z,96713.63
2018-02-02T11:49:35.047Z,96716.83
2018-02-02T11:52:02.679Z,96713.09
2018-02-02T11:54:30.372Z,96712.28
2018-02-02T11:56:57.869Z,96726.02
2018-02-02T11:59:25.396Z,96721.13
2018-02-02T12:01:52.907Z,96727.55
2018-02-02T12:04:20.477Z,96726.25
2018-02-02T12:06:48.981Z,96728.14
2018-02-02T12:09:17.099Z,96728.83
2018-02-02T12:11:44.628Z,96735.94
2018-02-02T12:14:12.104Z,96721.64
2018-02-02T12:16:39.654Z,96714.22
2018-02-02T12:19:07.214Z,96718.05
2018-02-02T12:21:35.694Z,96717.13
2018-02-02T12:24:08.740Z,96720.20
2018-02-02T12:26:36.350Z,96723.37
2018-02-02T12:32:17.352Z,96715.48
2018-02-02T12:34:45.646Z,96721.19
2018-02-02T12:37:13.170Z,96705.38
2018-02-02T12:39:40.711Z,96714.12
2018-02-02T12:42:08.254Z,96710.70
2018-02-02T12:44:36.089Z,96715.03
2018-02-02T12:47:03.583Z,96715.73
2018-02-02T12:49:31.157Z,96721.02
2018-02-02T12:51:58.659Z,96721.28
2018-02-02T12:54:26.241Z,96727.58
2018-02-02T12:56:53.831Z,96726.22
2018-02-02T12:59:21.519Z,96717.58
2018-02-02T13:01:49.041Z,96717.75
2018-02-02T13:04:16.589Z,96711.88
2018-02-02T13:06:44.095Z,96717.33
2018-02-02T13:09:11.620Z,96711.48
2018-02-02T13:11:39.150Z,96723.31
2018-02-02T13:14:06.654Z,96719.25
2018-02-02T13:16:34.154Z,96724.72
2018-02-02T13:19:01.685Z,96715.13
2018-02-02T13:21:29.200Z,96720.88
2018-02-02T13:23:56.706Z,96715.08
2018-02-02T13:26:24.216Z,96707.45
2018-02-02T13:28:51.731Z,96710.91
2018-02-02T13:31:19.283Z,96697.80
2018-02-02T13:33:46.856Z,96695.09
2018-02-02T13:36:14.360Z,96704.62
2018-02-02T13:38:41.841Z,96714.67
2018-02-02T13:41:09.470Z,96706.59
2018-02-02T13:43:37.042Z,96707.58
2018-02-02T13:46:04.676Z,96713.88
2018-02-02T13:48:32.364Z,96712.16
2018-02-02T13:50:59.854Z,96715.59
2018-02-02T13:53:27.392Z,96723.27
2018-02-02T13:55:55.009Z,96724.49
2018-02-02T13:58:22.549Z,96723.38
2018-02-02T14:00:50.063Z,96728.55
2018-02-02T14:03:17.624Z,96728.75
2018-02-02T14:05:45.367Z,96729.77
2018-02-02T14:08:16.857Z,96732.84
2018-02-02T14:10:44.891Z,96732.26
2018-02-02T14:13:12.412Z,96738.88
2018-02-02T14:15:39.933Z,96728.84
2018-02-02T14:18:07.418Z,96727.19
2018-02-02T14:20:34.924Z,96733.08
2018-02-02T14:23:02.505Z,96728.72
2018-02-02T14:25:30.086Z,96728.06
2018-02-02T14:28:06.054Z,96738.97
2018-02-02T14:30:33.694Z,96739.77
2018-02-02T14:33:01.194Z,96738.88
2018-02-02T14:35:28.686Z,96747.27
2018-02-02T14:37:56.259Z,96747.53
2018-02-02T14:40:23.824Z,96750.05
2018-02-02T14:42:51.342Z,96748.83
2018-02-02T14:45:18.931Z,96747.08
2018-02-02T14:47:46.556Z,96754.00
2018-02-02T14:50:14.129Z,96755.20
2018-02-02T14:52:41.722Z,96743.44
2018-02-02T14:55:09.342Z,96753.42
2018-02-02T14:57:36.851Z,96757.36
2018-02-02T15:00:04.401Z,96754.80
2018-02-02T15:02:32.021Z,96758.28
2018-02-02T15:04:59.499Z,96765.48
2018-02-02T15:07:26.974Z,96759.11
2018-02-02T15:09:54.630Z,96764.33
2018-02-02T15:12:22.170Z,96762.18
2018-02-02T15:14:49.781Z,96761.73
2018-02-02T15:17:17.271Z,96753.89
2018-02-02T15:19:44.877Z,96756.03
2018-02-02T15:22:12.357Z,96752.72
2018-02-02T15:24:39.862Z,96752.17
2018-02-02T15:27:07.372Z,96754.36
2018-02-02T15:29:34.906Z,96755.50
2018-02-02T15:32:02.857Z,96746.42
2018-02-02T15:34:31.327Z,96757.20
2018-02-02T15:36:59.050Z,96758.28
2018-02-02T15:39:26.962Z,96759.86
2018-02-02T15:41:55.146Z,96761.11
2018-02-02T15:44:22.744Z,96758.81
2018-02-02T15:46:50.299Z,96757.52
2018-02-02T15:49:17.826Z,96760.65
2018-02-02T15:51:45.438Z,96759.52
2018-02-02T15:54:13.059Z,96760.44
2018-02-02T15:56:40.645Z,96763.48
2018-02-02T15:59:08.250Z,96761.81
2018-02-02T16:01:35.757Z,96759.37
2018-02-02T16:04:03.270Z,96764.45
2018-02-02T16:06:30.826Z,96763.45
2018-02-02T16:08:58.337Z,96760.89
2018-02-02T16:11:25.915Z,96759.19
2018-02-02T16:13:53.399Z,96764.59
2018-02-02T16:16:20.938Z,96768.30
2018-02-02T16:18:48.415Z,96763.65
2018-02-02T16:21:16.716Z,96769.23
2018-02-02T16:23:44.224Z,96773.09
2018-02-02T16:26:11.802Z,96779.89
2018-02-02T16:28:39.386Z,96772.81
2018-02-02T16:31:06.907Z,96769.73
2018-02-02T16:33:34.485Z,96769.45
2018-02-02T16:36:02.821Z,96775.70
2018-02-02T16:38:30.343Z,96781.43
2018-02-02T16:40:57.855Z,96775.27
2018-02-02T16:43:26.602Z,96773.83
2018-02-02T16:45:54.181Z,96776.20
2018-02-02T16:48:21.725Z,96774.63
2018-02-02T16:50:49.464Z,96787.30
2018-02-02T16:53:16.944Z,96787.83
2018-02-02T16:55:44.447Z,96783.67
2018-02-02T16:58:11.960Z,96778.22
2018-02-02T17:00:39.528Z,96785.88
2018-02-02T17:03:07.037Z,96786.72
2018-02-02T17:05:34.668Z,96781.66
2018-02-02T17:08:02.208Z,96785.37
2018-02-02T17:10:29.717Z,96778.70
2018-02-02T17:12:57.270Z,96784.20
2018-02-02T17:15:24.767Z,96778.52
2018-02-02T17:17:52.269Z,96789.70
2018-02-02T17:20:19.796Z,96784.52
2018-02-02T17:22:47.376Z,96795.64
2018-02-02T17:25:14.919Z,96793.70
2018-02-02T17:27:42.516Z,96790.84
2018-02-02T17:30:10.121Z,96790.90
2018-02-02T17:32:37.626Z,96799.63
2018-02-02T17:35:05.220Z,96786.53
2018-02-02T17:37:32.739Z,96786.31
2018-02-02T17:40:00.276Z,96787.00
2018-02-02T17:42:29.494Z,96799.64
2018-02-02T17:44:59.015Z,96789.03
2018-02-02T17:47:28.304Z,96792.89
2018-02-02T17:49:58.089Z,96785.92
2018-02-02T17:52:27.322Z,96792.84
2018-02-02T17:54:57.492Z,96786.47
2018-02-02T17:57:26.656Z,96788.86
2018-02-02T17:59:56.666Z,96796.83
2018-02-02T18:02:32.602Z,96781.18
2018-02-02T18:05:01.504Z,96795.95
2018-02-02T18:07:29.006Z,96793.97
2018-02-02T18:09:58.843Z,96791.90
2018-02-02T18:12:28.616Z,96787.03
2018-02-02T18:14:58.116Z,96785.91
2018-02-02T18:17:26.025Z,96788.12
2018-02-02T18:19:56.952Z,96793.09
2018-02-02T18:22:26.636Z,96797.84
2018-02-02T18:24:56.456Z,96797.31
2018-02-02T18:27:26.623Z,96797.09
2018-02-02T18:29:56.307Z,96801.08
2018-02-02T18:32:25.383Z,96807.28
2018-02-02T18:34:54.787Z,96798.95
2018-02-02T18:37:26.386Z,96791.95
2018-02-02T18:39:55.695Z,96792.97
2018-02-02T18:42:25.313Z,96789.39
2018-02-02T18:44:54.822Z,96794.75
2018-02-02T18:47:24.505Z,96798.55
2018-02-02T18:49:54.242Z,96803.77
2018-02-02T18:52:23.864Z,96802.63
2018-02-02T18:54:52.900Z,96802.56
2018-02-02T18:57:22.804Z,96816.70
2018-02-02T18:59:52.338Z,96819.63
2018-02-02T19:02:22.085Z,96818.53
2018-02-02T19:04:51.325Z,96811.92
2018-02-02T19:07:21.041Z,96821.59
2018-02-02T19:09:51.355Z,96824.52
2018-02-02T19:12:24.695Z,96828.91
2018-02-02T19:14:54.466Z,96830.11
2018-02-02T19:17:23.372Z,96830.89
2018-02-02T19:19:56.077Z,96838.03
2018-02-02T19:22:23.631Z,96842.81
2018-02-02T19:24:51.201Z,96843.09
2018-02-02T19:27:18.810Z,96847.48
2018-02-02T19:29:46.368Z,96848.86
2018-02-02T19:32:13.908Z,96846.34
2018-02-02T19:34:41.394Z,96847.27
2018-02-02T19:37:09.071Z,96842.88
2018-02-02T19:39:36.636Z,96844.08
2018-02-02T19:42:04.329Z,96849.62
2018-02-02T19:44:31.987Z,96841.67
2018-02-02T19:46:59.703Z,96848.48
2018-02-02T19:49:27.594Z,96850.38
2018-02-02T19:51:55.204Z,96849.80
2018-02-02T19:54:23.077Z,96855.08
2018-02-02T19:56:50.906Z,96854.00
2018-02-02T19:59:18.472Z,96852.40
2018-02-02T20:01:46.294Z,96854.88
2018-02-02T20:04:13.834Z,96851.74
2018-02-02T20:06:41.342Z,96849.62
2018-02-02T20:09:08.904Z,96853.13
2018-02-02T20:11:36.418Z,96857.25
2018-02-02T20:14:04.327Z,96851.17
2018-02-02T20:16:31.937Z,96853.57
2018-02-02T20:18:59.443Z,96854.37
